createdAt,value
2023-05-21T00:00:51.796Z,15.70
2023-05-21T00:03:42.307Z,18.00
2023-05-21T00:06:33.145Z,17.10
2023-05-21T00:09:21.706Z,14.40
2023-05-21T00:12:10.387Z,14.20
2023-05-21T00:15:00.120Z,14.20
2023-05-21T00:17:48.778Z,13.80
2023-05-21T00:20:37.403Z,13.50
2023-05-21T00:23:26.448Z,12.90
2023-05-21T00:26:14.962Z,16.60
2023-05-21T00:29:04.199Z,16.30
2023-05-21T00:31:52.777Z,16.00
2023-05-21T00:34:41.307Z,15.70
2023-05-21T00:37:33.183Z,15.40
2023-05-21T00:40:21.909Z,16.90
2023-05-21T00:43:10.785Z,17.10
2023-05-21T00:45:59.559Z,16.10
2023-05-21T00:48:49.597Z,15.40
2023-05-21T00:51:38.332Z,13.80
2023-05-21T00:54:27.094Z,15.50
2023-05-21T00:57:20.713Z,13.90
2023-05-21T01:00:10.929Z,14.30
2023-05-21T01:03:01.225Z,14.20
2023-05-21T01:06:00.000Z,15.70
2023-05-21T01:08:48.952Z,18.50
2023-05-21T01:11:40.018Z,16.50
2023-05-21T01:14:29.702Z,16.40
2023-05-21T01:17:19.018Z,16.10
2023-05-21T01:20:11.384Z,15.80
2023-05-21T01:23:00.770Z,15.90
2023-05-21T01:25:49.420Z,16.60
2023-05-21T01:28:38.779Z,13.30
2023-05-21T01:31:34.343Z,12.40
2023-05-21T01:34:28.532Z,14.30
2023-05-21T01:37:41.018Z,14.60
2023-05-21T01:40:50.055Z,16.10
2023-05-21T01:43:42.190Z,15.40
2023-05-21T01:46:34.900Z,13.20
2023-05-21T01:49:23.935Z,12.80
2023-05-21T01:52:13.054Z,14.20
2023-05-21T01:55:01.621Z,15.20
2023-05-21T01:57:53.491Z,13.20
2023-05-21T02:00:42.340Z,13.70
2023-05-21T02:03:31.643Z,14.20
2023-05-21T02:06:20.967Z,14.90
2023-05-21T02:09:09.555Z,13.80
2023-05-21T02:11:58.302Z,15.40
2023-05-21T02:14:50.523Z,15.00
2023-05-21T02:17:39.410Z,14.30
2023-05-21T02:20:32.055Z,15.50
2023-05-21T02:23:20.603Z,14.90
2023-05-21T02:26:09.431Z,13.20
2023-05-21T02:28:58.095Z,13.00
2023-05-21T02:31:46.814Z,12.50
2023-05-21T02:34:42.489Z,10.70
2023-05-21T02:37:34.598Z,11.70
2023-05-21T02:40:24.354Z,12.40
2023-05-21T02:43:14.817Z,12.20
2023-05-21T02:46:06.782Z,12.40
2023-05-21T02:48:55.560Z,12.20
2023-05-21T02:51:44.651Z,14.10
2023-05-21T02:54:33.189Z,11.50
2023-05-21T02:57:21.722Z,12.20
2023-05-21T03:00:11.589Z,13.10
2023-05-21T03:03:00.628Z,12.80
2023-05-21T03:05:49.511Z,13.40
2023-05-21T03:08:38.143Z,14.30
2023-05-21T03:11:26.640Z,13.30
2023-05-21T03:14:16.282Z,13.80
2023-05-21T03:17:06.254Z,12.10
2023-05-21T03:19:55.220Z,11.60
2023-05-21T03:22:44.600Z,12.30
2023-05-21T03:25:34.641Z,10.90
2023-05-21T03:28:23.463Z,11.90
2023-05-21T03:31:12.364Z,11.60
2023-05-21T03:34:11.974Z,10.30
2023-05-21T03:37:00.555Z,9.80
2023-05-21T03:39:49.313Z,10.10
2023-05-21T03:42:37.925Z,9.40
2023-05-21T03:45:26.573Z,10.70
2023-05-21T03:48:33.758Z,9.60
2023-05-21T03:51:24.787Z,9.70
2023-05-21T03:54:13.517Z,10.20
2023-05-21T03:57:02.165Z,10.80
2023-05-21T03:59:51.068Z,12.10
2023-05-21T04:02:39.730Z,8.50
2023-05-21T04:05:28.658Z,8.90
2023-05-21T04:08:18.515Z,9.00
2023-05-21T04:11:07.172Z,9.90
2023-05-21T04:13:57.207Z,8.60
2023-05-21T04:16:45.945Z,8.50
2023-05-21T04:19:34.561Z,8.50
2023-05-21T04:22:26.654Z,9.10
2023-05-21T04:25:15.396Z,9.30
2023-05-21T04:28:04.372Z,8.20
2023-05-21T04:30:56.575Z,8.10
2023-05-21T04:33:46.119Z,7.70
2023-05-21T04:36:35.266Z,7.70
2023-05-21T04:39:23.861Z,7.70
2023-05-21T04:42:12.620Z,8.00
2023-05-21T04:45:01.420Z,6.90
2023-05-21T04:47:50.787Z,7.40
2023-05-21T04:50:41.605Z,7.30
2023-05-21T04:53:31.101Z,6.90
2023-05-21T04:56:19.933Z,6.60
2023-05-21T04:59:08.523Z,6.70
2023-05-21T05:01:57.060Z,6.70
2023-05-21T05:04:46.552Z,6.30
2023-05-21T05:07:35.607Z,6.10
2023-05-21T05:10:24.703Z,6.20
2023-05-21T05:13:13.998Z,5.90
2023-05-21T05:16:02.693Z,6.10
2023-05-21T05:18:54.691Z,6.30
2023-05-21T05:21:43.585Z,6.20
2023-05-21T05:24:33.655Z,6.60
2023-05-21T05:27:22.171Z,6.00
2023-05-21T05:30:11.308Z,6.10
2023-05-21T05:32:59.991Z,6.10
2023-05-21T05:35:48.699Z,6.30
2023-05-21T05:38:37.361Z,5.50
2023-05-21T05:41:26.975Z,5.50
2023-05-21T05:44:15.675Z,5.70
2023-05-21T05:47:09.236Z,6.00
2023-05-21T05:49:57.874Z,5.70
2023-05-21T05:52:47.150Z,5.80
2023-05-21T05:55:37.478Z,5.80
2023-05-21T05:58:26.430Z,7.80
2023-05-21T06:01:22.776Z,8.10
2023-05-21T06:04:11.675Z,5.40
2023-05-21T06:07:00.986Z,5.60
2023-05-21T06:09:49.572Z,5.50
2023-05-21T06:12:38.178Z,5.50
2023-05-21T06:15:27.698Z,5.60
2023-05-21T06:18:16.367Z,5.30
2023-05-21T06:21:05.301Z,5.10
2023-05-21T06:23:53.825Z,5.60
2023-05-21T06:26:42.727Z,4.90
2023-05-21T06:29:31.510Z,5.30
2023-05-21T06:32:23.191Z,5.70
2023-05-21T06:35:11.917Z,4.90
2023-05-21T06:38:01.017Z,5.40
2023-05-21T06:40:50.328Z,5.10
2023-05-21T06:43:49.946Z,5.10
2023-05-21T06:47:04.655Z,5.50
2023-05-21T06:49:53.176Z,4.60
2023-05-21T06:52:42.147Z,5.10
2023-05-21T06:55:31.392Z,4.50
2023-05-21T06:58:40.339Z,5.00
2023-05-21T07:01:29.107Z,4.80
2023-05-21T07:04:18.954Z,5.10
2023-05-21T07:07:07.875Z,4.80
2023-05-21T07:09:56.503Z,4.20
2023-05-21T07:12:45.122Z,4.50
2023-05-21T07:15:33.995Z,5.10
2023-05-21T07:18:23.779Z,6.50
2023-05-21T07:21:12.423Z,4.50
2023-05-21T07:24:01.206Z,4.80
2023-05-21T07:26:49.899Z,6.10
2023-05-21T07:29:38.819Z,4.90
2023-05-21T07:32:29.237Z,8.20
2023-05-21T07:35:19.173Z,4.60
2023-05-21T07:38:08.263Z,4.70
2023-05-21T07:40:57.404Z,5.00
2023-05-21T07:43:45.985Z,7.50
2023-05-21T07:46:35.511Z,4.70
2023-05-21T07:49:24.968Z,5.60
2023-05-21T07:52:13.855Z,5.70
2023-05-21T07:55:02.897Z,3.80
2023-05-21T07:57:53.080Z,4.20
2023-05-21T08:00:48.036Z,4.80
2023-05-21T08:03:36.817Z,4.60
2023-05-21T08:06:27.033Z,4.20
2023-05-21T08:09:15.973Z,6.40
2023-05-21T08:12:04.844Z,3.80
2023-05-21T08:14:54.948Z,8.10
2023-05-21T08:17:43.830Z,4.70
2023-05-21T08:20:33.570Z,3.50
2023-05-21T08:23:23.246Z,3.80
2023-05-21T08:26:16.494Z,4.90
2023-05-21T08:29:05.663Z,3.80
2023-05-21T08:31:54.485Z,5.00
2023-05-21T08:34:43.292Z,3.40
2023-05-21T08:37:50.682Z,3.30
2023-05-21T08:40:58.582Z,3.70
2023-05-21T08:43:50.263Z,3.00
2023-05-21T08:46:41.456Z,2.50
2023-05-21T08:49:34.589Z,3.00
2023-05-21T08:52:24.205Z,2.60
2023-05-21T08:55:13.281Z,2.40
2023-05-21T08:58:04.631Z,2.60
2023-05-21T09:00:55.080Z,2.50
2023-05-21T09:03:46.714Z,2.70
2023-05-21T09:06:37.809Z,3.30
2023-05-21T09:09:46.087Z,2.80
2023-05-21T09:12:34.950Z,2.60
2023-05-21T09:15:23.746Z,2.90
2023-05-21T09:18:13.637Z,2.90
2023-05-21T09:21:31.719Z,2.90
2023-05-21T09:24:35.094Z,2.70
2023-05-21T09:27:24.974Z,2.50
2023-05-21T09:30:17.974Z,2.70
2023-05-21T09:33:06.665Z,3.10
2023-05-21T09:35:55.561Z,2.90
2023-05-21T09:38:45.261Z,2.90
2023-05-21T09:41:36.050Z,2.70
2023-05-21T09:44:25.637Z,2.80
2023-05-21T09:47:19.987Z,2.60
2023-05-21T09:50:10.837Z,3.00
2023-05-21T09:52:59.578Z,2.40
2023-05-21T09:55:53.427Z,2.30
2023-05-21T09:58:42.513Z,2.70
2023-05-21T10:01:33.924Z,2.50
2023-05-21T10:04:24.124Z,4.50
2023-05-21T10:07:13.348Z,3.90
2023-05-21T10:10:04.925Z,4.10
2023-05-21T10:13:01.281Z,2.80
2023-05-21T10:15:56.014Z,3.90
2023-05-21T10:18:46.880Z,2.50
2023-05-21T10:21:35.759Z,2.30
2023-05-21T10:24:25.194Z,4.40
2023-05-21T10:27:14.103Z,2.40
2023-05-21T10:30:04.930Z,3.90
2023-05-21T10:32:56.039Z,3.00
2023-05-21T10:35:47.956Z,2.70
2023-05-21T10:38:38.629Z,3.50
2023-05-21T10:44:23.251Z,2.70
2023-05-21T10:48:00.419Z,3.20
2023-05-21T10:51:14.058Z,3.20
2023-05-21T10:54:31.640Z,2.60
2023-05-21T10:57:41.583Z,2.50
2023-05-21T11:00:31.638Z,2.40
2023-05-21T11:03:22.196Z,2.40
2023-05-21T11:06:11.672Z,2.80
2023-05-21T11:09:12.711Z,2.40
2023-05-21T11:12:02.212Z,2.50
2023-05-21T11:14:58.140Z,2.60
2023-05-21T11:17:50.734Z,2.60
2023-05-21T11:20:39.490Z,2.10
2023-05-21T11:23:54.473Z,2.50
2023-05-21T11:26:49.143Z,2.50
2023-05-21T11:29:40.785Z,2.70
2023-05-21T11:32:29.848Z,2.50
2023-05-21T11:35:22.459Z,2.10
2023-05-21T11:38:11.042Z,2.60
2023-05-21T11:41:03.930Z,2.30
2023-05-21T11:44:01.164Z,2.20
2023-05-21T11:46:51.454Z,2.40
2023-05-21T11:49:39.964Z,2.90
2023-05-21T11:52:30.468Z,2.30
2023-05-21T11:55:24.074Z,2.50
2023-05-21T11:58:14.422Z,2.50
2023-05-21T12:01:03.020Z,2.50
2023-05-21T12:03:51.687Z,2.30
2023-05-21T12:06:43.391Z,2.30
2023-05-21T12:09:32.050Z,2.50
2023-05-21T12:12:22.769Z,2.20
2023-05-21T12:18:01.320Z,2.20
2023-05-21T12:20:52.103Z,2.10
2023-05-21T12:23:40.842Z,3.20
2023-05-21T12:26:29.864Z,3.10
2023-05-21T12:29:18.658Z,2.40
2023-05-21T12:32:09.378Z,2.90
2023-05-21T12:37:46.930Z,3.70
2023-05-21T12:40:39.561Z,3.70
2023-05-21T12:43:32.304Z,2.80
2023-05-21T12:46:21.417Z,2.30
2023-05-21T12:49:33.904Z,4.10
2023-05-21T12:52:22.686Z,2.60
2023-05-21T12:55:13.578Z,2.60
2023-05-21T12:58:09.049Z,3.40
2023-05-21T13:00:57.985Z,2.70
2023-05-21T13:03:46.707Z,2.90
2023-05-21T13:06:45.809Z,3.50
2023-05-21T13:09:34.416Z,2.90
2023-05-21T13:12:26.848Z,3.70
2023-05-21T13:15:15.659Z,2.90
2023-05-21T13:18:04.392Z,2.60
2023-05-21T13:20:52.988Z,2.50
2023-05-21T13:23:41.502Z,2.90
2023-05-21T13:26:30.071Z,3.50
2023-05-21T13:29:18.685Z,3.00
2023-05-21T13:32:07.427Z,2.90
2023-05-21T13:34:56.026Z,2.60
2023-05-21T13:37:45.078Z,3.30
2023-05-21T13:40:34.713Z,4.20
2023-05-21T13:43:24.638Z,5.10
2023-05-21T13:46:13.243Z,2.40
2023-05-21T13:49:03.505Z,2.60
2023-05-21T13:51:51.977Z,2.90
2023-05-21T13:54:40.673Z,2.70
2023-05-21T13:57:30.945Z,3.10
2023-05-21T14:00:19.662Z,3.00
2023-05-21T14:03:09.950Z,2.80
2023-05-21T14:05:58.563Z,3.00
2023-05-21T14:08:47.066Z,2.80
2023-05-21T14:11:35.866Z,2.50
2023-05-21T14:14:24.860Z,3.00
2023-05-21T14:17:13.398Z,2.70
2023-05-21T14:20:02.075Z,3.10
2023-05-21T14:22:50.759Z,4.10
2023-05-21T14:25:41.267Z,4.50
2023-05-21T14:31:18.399Z,6.80
2023-05-21T14:34:08.728Z,3.80
2023-05-21T14:36:57.198Z,5.00
2023-05-21T14:39:45.712Z,3.50
2023-05-21T14:42:35.135Z,2.90
2023-05-21T14:45:23.758Z,3.00
2023-05-21T14:48:12.440Z,3.00
2023-05-21T14:51:00.977Z,2.80
2023-05-21T14:53:49.582Z,2.90
2023-05-21T14:56:38.085Z,3.10
2023-05-21T14:59:26.649Z,3.20
2023-05-21T15:02:15.186Z,3.40
2023-05-21T15:05:03.905Z,3.70
2023-05-21T15:07:52.422Z,3.60
2023-05-21T15:10:40.970Z,3.70
2023-05-21T15:13:29.474Z,3.50
2023-05-21T15:16:19.749Z,3.20
2023-05-21T15:21:57.251Z,3.00
2023-05-21T15:24:45.790Z,2.80
2023-05-21T15:27:34.819Z,2.70
2023-05-21T15:30:23.391Z,3.50
2023-05-21T15:33:12.274Z,3.20
2023-05-21T15:36:00.982Z,3.00
2023-05-21T15:38:49.510Z,2.90
2023-05-21T15:41:38.389Z,3.30
2023-05-21T15:44:27.001Z,3.00
2023-05-21T15:47:16.099Z,3.10
2023-05-21T15:50:04.983Z,3.20
2023-05-21T15:52:53.750Z,2.20
2023-05-21T15:55:42.434Z,2.70
2023-05-21T15:58:31.386Z,2.30
2023-05-21T16:01:20.000Z,2.80
2023-05-21T16:04:08.764Z,5.60
2023-05-21T16:06:57.378Z,5.00
2023-05-21T16:09:46.065Z,4.60
2023-05-21T16:12:34.660Z,3.40
2023-05-21T16:15:23.217Z,5.50
2023-05-21T16:18:12.439Z,3.00
2023-05-21T16:21:01.243Z,3.40
2023-05-21T16:23:49.876Z,6.00
2023-05-21T16:26:38.463Z,3.00
2023-05-21T16:29:27.004Z,2.60
2023-05-21T16:32:16.075Z,3.30
2023-05-21T16:35:05.516Z,4.70
2023-05-21T16:37:54.119Z,4.00
2023-05-21T16:40:42.720Z,2.90
2023-05-21T16:43:31.252Z,2.70
2023-05-21T16:46:20.634Z,2.30
2023-05-21T16:49:09.162Z,2.30
2023-05-21T16:51:57.854Z,2.40
2023-05-21T16:54:48.898Z,3.40
2023-05-21T16:57:37.831Z,2.40
2023-05-21T17:00:27.378Z,3.80
2023-05-21T17:03:16.160Z,3.00
2023-05-21T17:06:04.860Z,2.30
2023-05-21T17:08:53.474Z,2.40
2023-05-21T17:11:44.903Z,3.40
2023-05-21T17:14:35.309Z,2.50
2023-05-21T17:17:24.855Z,2.90
2023-05-21T17:20:13.504Z,3.80
2023-05-21T17:23:02.227Z,3.20
2023-05-21T17:25:52.040Z,2.70
2023-05-21T17:28:40.626Z,2.70
2023-05-21T17:31:32.174Z,2.90
2023-05-21T17:34:21.235Z,2.80
2023-05-21T17:37:09.960Z,3.20
2023-05-21T17:39:58.688Z,2.80
2023-05-21T17:42:48.059Z,3.60
2023-05-21T17:45:36.877Z,3.10
2023-05-21T17:48:26.129Z,3.40
2023-05-21T17:51:14.888Z,2.70
2023-05-21T17:54:04.202Z,3.20
2023-05-21T17:56:52.775Z,3.10
2023-05-21T17:59:45.126Z,2.80
2023-05-21T18:02:34.069Z,3.50
2023-05-21T18:05:22.908Z,3.60
2023-05-21T18:08:11.510Z,3.00
2023-05-21T18:11:01.630Z,2.90
2023-05-21T18:13:50.382Z,3.00
2023-05-21T18:16:38.983Z,3.60
2023-05-21T18:19:27.729Z,3.10
2023-05-21T18:22:16.504Z,2.80
2023-05-21T18:25:05.655Z,3.40
2023-05-21T18:27:54.237Z,3.60
2023-05-21T18:30:42.917Z,3.10
2023-05-21T18:33:31.667Z,3.30
2023-05-21T18:36:20.225Z,3.10
2023-05-21T18:39:09.884Z,2.80
2023-05-21T18:42:11.972Z,3.90
2023-05-21T18:45:08.043Z,3.00
2023-05-21T18:47:56.732Z,3.80
2023-05-21T18:50:45.454Z,4.00
2023-05-21T18:53:34.004Z,4.20
2023-05-21T18:56:22.641Z,4.90
2023-05-21T18:59:11.193Z,6.40
2023-05-21T19:02:00.153Z,4.70
2023-05-21T19:04:48.980Z,4.50
2023-05-21T19:07:37.616Z,4.90
2023-05-21T19:10:26.773Z,4.60
2023-05-21T19:13:15.528Z,4.30
2023-05-21T19:16:04.367Z,3.90
2023-05-21T19:18:53.072Z,3.80
2023-05-21T19:21:41.655Z,5.00
2023-05-21T19:24:30.130Z,4.60
2023-05-21T19:27:19.276Z,4.50
2023-05-21T19:30:08.612Z,4.90
2023-05-21T19:32:57.235Z,5.00
2023-05-21T19:35:45.817Z,4.50
2023-05-21T19:38:35.670Z,4.20
2023-05-21T19:41:24.337Z,4.30
2023-05-21T19:44:12.847Z,4.80
2023-05-21T19:47:02.161Z,4.50
2023-05-21T19:49:50.760Z,4.30
2023-05-21T19:52:39.544Z,6.30
2023-05-21T19:55:28.439Z,6.30
2023-05-21T19:58:19.259Z,9.20
2023-05-21T20:01:07.894Z,6.50
2023-05-21T20:03:56.617Z,6.20
2023-05-21T20:06:45.188Z,10.00
2023-05-21T20:09:33.772Z,6.90
2023-05-21T20:12:22.924Z,5.50
2023-05-21T20:15:13.248Z,5.30
2023-05-21T20:18:02.356Z,5.70
2023-05-21T20:20:50.972Z,6.10
2023-05-21T20:23:39.824Z,6.60
2023-05-21T20:26:28.339Z,6.10
2023-05-21T20:29:16.897Z,8.70
2023-05-21T20:32:07.219Z,8.60
2023-05-21T20:35:03.432Z,7.40
2023-05-21T20:37:52.940Z,7.40
2023-05-21T20:40:42.581Z,6.60
2023-05-21T20:43:31.330Z,6.90
2023-05-21T20:46:20.060Z,6.40
2023-05-21T20:49:09.796Z,6.10
2023-05-21T20:51:58.490Z,5.80
2023-05-21T20:54:47.069Z,6.20
2023-05-21T21:00:26.869Z,6.10
2023-05-21T21:03:17.846Z,5.60
2023-05-21T21:08:55.515Z,5.40
2023-05-21T21:11:44.003Z,5.20
2023-05-21T21:14:32.731Z,5.00
2023-05-21T21:17:21.310Z,4.80
2023-05-21T21:20:10.849Z,4.90
2023-05-21T21:22:59.571Z,4.60
2023-05-21T21:25:48.129Z,5.00
2023-05-21T21:28:36.698Z,5.70
2023-05-21T21:31:25.636Z,6.00
2023-05-21T21:34:14.760Z,5.70
2023-05-21T21:37:03.770Z,5.00
2023-05-21T21:39:52.349Z,4.70
2023-05-21T21:42:42.288Z,4.60
2023-05-21T21:45:30.945Z,4.60
2023-05-21T21:48:19.537Z,5.70
2023-05-21T21:51:08.584Z,5.40
2023-05-21T21:53:57.101Z,4.10
2023-05-21T21:56:45.788Z,4.50
2023-05-21T21:59:34.748Z,4.60
2023-05-21T22:02:23.324Z,4.40
2023-05-21T22:05:14.877Z,4.50
2023-05-21T22:08:03.806Z,4.80
2023-05-21T22:10:52.560Z,4.50
2023-05-21T22:13:44.304Z,4.40
2023-05-21T22:16:36.619Z,5.10
2023-05-21T22:19:25.380Z,5.20
2023-05-21T22:22:14.401Z,4.60
2023-05-21T22:25:02.965Z,5.70
2023-05-21T22:27:52.240Z,5.50
2023-05-21T22:30:41.021Z,9.50
2023-05-21T22:33:29.875Z,6.10
2023-05-21T22:36:18.446Z,5.60
2023-05-21T22:39:07.002Z,5.70
2023-05-21T22:41:55.587Z,5.10
2023-05-21T22:44:44.394Z,5.30
2023-05-21T22:47:33.071Z,5.50
2023-05-21T22:50:23.141Z,5.80
2023-05-21T22:53:11.978Z,5.00
2023-05-21T22:56:01.135Z,5.00
2023-05-21T22:58:50.356Z,5.00
2023-05-21T23:01:39.131Z,4.70
2023-05-21T23:04:43.168Z,4.30
2023-05-21T23:07:33.007Z,4.90
2023-05-21T23:10:21.586Z,4.60
2023-05-21T23:13:10.324Z,5.10
2023-05-21T23:15:58.984Z,4.70
2023-05-21T23:18:48.760Z,5.20
2023-05-21T23:21:37.385Z,5.40
2023-05-21T23:24:26.012Z,5.20
2023-05-21T23:27:15.688Z,5.00
2023-05-21T23:30:04.433Z,6.30
2023-05-21T23:32:53.049Z,6.50
2023-05-21T23:35:41.629Z,6.00
2023-05-21T23:38:30.179Z,6.20
2023-05-21T23:41:18.962Z,7.10
2023-05-21T23:44:07.493Z,5.50
2023-05-21T23:46:56.180Z,6.20
2023-05-21T23:49:44.761Z,5.00
2023-05-21T23:52:33.354Z,5.30
2023-05-21T23:55:22.159Z,5.50
2023-05-21T23:58:11.382Z,5.80
